ARG1818 SABE-SAVE
Flight info
| Callsign | ARG1818 |
|---|---|
| Flight time | 1h 45m |
| Altitude | 32000 |
| Route | PAL9 TORUL UT654 BIXIM UW41 NITLO DCT OPLAS |
| Aircraft | B738/M-SDE2E3FGHIRWXY/LB1 |
Departure
| Time | 2026-05-06 19:18 |
|---|---|
| Airport | Aeroparque Jorge Newbery (SABE) |
Arrival
| Time | 2026-05-06 21:03 |
|---|---|
| Airport | Esquel Brigadier Antonio Parodi International Airport (SAVE) |
| Time | Latitude | Longitude | Altitude | Speed | Heading |
|---|---|---|---|---|---|
| 2026-05-06 18:48 | -34.55760 | -58.41326 | 24 ft | 0 kts | 35° |
| 2026-05-06 18:49 | -34.55760 | -58.41325 | 24 ft | 0 kts | 35° |
| 2026-05-06 19:11 | -34.55775 | -58.41338 | 43 ft | 4 kts | 31° |
| 2026-05-06 19:11 | -34.55797 | -58.41349 | 22 ft | 4 kts | 340° |
| 2026-05-06 19:11 | -34.55811 | -58.41332 | 28 ft | 4 kts | 302° |
| 2026-05-06 19:11 | -34.55822 | -58.41310 | 28 ft | 0 kts | 301° |
| 2026-05-06 19:14 | -34.55816 | -58.41323 | 29 ft | 3 kts | 301° |
| 2026-05-06 19:14 | -34.55800 | -58.41351 | 23 ft | 7 kts | 303° |
| 2026-05-06 19:14 | -34.55755 | -58.41433 | 25 ft | 14 kts | 301° |
| 2026-05-06 19:14 | -34.55729 | -58.41542 | 24 ft | 14 kts | 242° |
| 2026-05-06 19:15 | -34.55786 | -58.41621 | 26 ft | 10 kts | 263° |
| 2026-05-06 19:15 | -34.55760 | -58.41696 | 26 ft | 10 kts | 296° |
| 2026-05-06 19:15 | -34.55719 | -58.41786 | 25 ft | 15 kts | 303° |
| 2026-05-06 19:15 | -34.55657 | -58.41898 | 26 ft | 16 kts | 304° |
| 2026-05-06 19:16 | -34.55595 | -58.42009 | 28 ft | 16 kts | 304° |
| 2026-05-06 19:16 | -34.55533 | -58.42113 | 26 ft | 15 kts | 307° |
| 2026-05-06 19:16 | -34.55471 | -58.42212 | 24 ft | 14 kts | 307° |
| 2026-05-06 19:16 | -34.55412 | -58.42306 | 25 ft | 14 kts | 307° |
| 2026-05-06 19:17 | -34.55368 | -58.42405 | 27 ft | 13 kts | 284° |
| 2026-05-06 19:17 | -34.55380 | -58.42499 | 28 ft | 8 kts | 220° |
| 2026-05-06 19:17 | -34.55416 | -58.42486 | 25 ft | 0 kts | 127° |
| 2026-05-06 19:17 | -34.55434 | -58.42457 | 26 ft | 24 kts | 125° |
| 2026-05-06 19:18 | -34.55679 | -58.42019 | 27 ft | 100 kts | 124° |
| 2026-05-06 19:18 | -34.56192 | -58.41099 | 53 ft | 159 kts | 124° |
| 2026-05-06 19:18 | -34.56840 | -58.39936 | 693 ft | 172 kts | 122° |
| 2026-05-06 19:18 | -34.57503 | -58.38671 | 1424 ft | 185 kts | 108° |
| 2026-05-06 19:19 | -34.57653 | -58.37076 | 1732 ft | 203 kts | 68° |
| 2026-05-06 19:19 | -34.56907 | -58.35580 | 1973 ft | 218 kts | 47° |
| 2026-05-06 19:19 | -34.56023 | -58.34005 | 2395 ft | 232 kts | 51° |
| 2026-05-06 19:19 | -34.55144 | -58.32237 | 2703 ft | 254 kts | 53° |
| 2026-05-06 19:20 | -34.54264 | -58.30332 | 3386 ft | 261 kts | 53° |
| 2026-05-06 19:20 | -34.53105 | -58.28741 | 4196 ft | 247 kts | 24° |
| 2026-05-06 19:20 | -34.51532 | -58.28041 | 5029 ft | 239 kts | 5° |
| 2026-05-06 19:20 | -34.49890 | -58.28072 | 5838 ft | 237 kts | 345° |
| 2026-05-06 19:21 | -34.48384 | -58.28869 | 6595 ft | 240 kts | 325° |
| 2026-05-06 19:21 | -34.47236 | -58.30349 | 7340 ft | 247 kts | 304° |
| 2026-05-06 19:21 | -34.46651 | -58.32346 | 8093 ft | 260 kts | 282° |
| 2026-05-06 19:21 | -34.46668 | -58.33823 | 8587 ft | 271 kts | 266° |
| 2026-05-06 19:22 | -34.47791 | -58.36628 | 9630 ft | 293 kts | 237° |
| 2026-05-06 19:22 | -34.48730 | -58.37866 | 10080 ft | 300 kts | 233° |
| 2026-05-06 19:22 | -34.50253 | -58.39720 | 10312 ft | 322 kts | 231° |
| 2026-05-06 19:22 | -34.51917 | -58.41683 | 10476 ft | 345 kts | 231° |
| 2026-05-06 19:23 | -34.53691 | -58.43763 | 10646 ft | 364 kts | 230° |
| 2026-05-06 19:23 | -34.55541 | -58.45936 | 11013 ft | 375 kts | 230° |
| 2026-05-06 19:23 | -34.57423 | -58.48153 | 11589 ft | 379 kts | 230° |
| 2026-05-06 19:23 | -34.59311 | -58.50388 | 12238 ft | 380 kts | 231° |
| 2026-05-06 19:24 | -34.61199 | -58.52635 | 12861 ft | 381 kts | 231° |
| 2026-05-06 19:24 | -34.63093 | -58.54901 | 13460 ft | 383 kts | 231° |
| 2026-05-06 19:24 | -34.64995 | -58.57184 | 13994 ft | 386 kts | 231° |
| 2026-05-06 19:24 | -34.66907 | -58.59484 | 14538 ft | 388 kts | 231° |
| 2026-05-06 19:25 | -34.68825 | -58.61796 | 15078 ft | 389 kts | 231° |
| 2026-05-06 19:25 | -34.70749 | -58.64116 | 15630 ft | 392 kts | 231° |
| 2026-05-06 19:25 | -34.72688 | -58.66457 | 16143 ft | 394 kts | 232° |
| 2026-05-06 19:25 | -34.74640 | -58.68815 | 16661 ft | 397 kts | 232° |
| 2026-05-06 19:26 | -34.76604 | -58.71188 | 17179 ft | 399 kts | 232° |
| 2026-05-06 19:26 | -34.78576 | -58.73572 | 17704 ft | 401 kts | 232° |
| 2026-05-06 19:26 | -34.80556 | -58.75968 | 18178 ft | 403 kts | 232° |
| 2026-05-06 19:26 | -34.82554 | -58.78388 | 18597 ft | 406 kts | 232° |
| 2026-05-06 19:27 | -34.84557 | -58.80816 | 19008 ft | 408 kts | 232° |
| 2026-05-06 19:27 | -34.86578 | -58.83266 | 19434 ft | 411 kts | 232° |
| 2026-05-06 19:27 | -34.88609 | -58.85731 | 19859 ft | 413 kts | 232° |
| 2026-05-06 19:27 | -34.90651 | -58.88211 | 20283 ft | 416 kts | 232° |
| 2026-05-06 19:28 | -34.92704 | -58.90705 | 20701 ft | 418 kts | 232° |
| 2026-05-06 19:28 | -34.94765 | -58.93211 | 21106 ft | 421 kts | 232° |
| 2026-05-06 19:28 | -34.96843 | -58.95740 | 21509 ft | 423 kts | 232° |
| 2026-05-06 19:28 | -34.98933 | -58.98286 | 21903 ft | 426 kts | 232° |
| 2026-05-06 19:29 | -35.01007 | -59.00814 | 22286 ft | 428 kts | 231° |
| 2026-05-06 19:29 | -35.03122 | -59.03393 | 22670 ft | 431 kts | 231° |
| 2026-05-06 19:29 | -35.05247 | -59.05986 | 23043 ft | 433 kts | 231° |
| 2026-05-06 19:29 | -35.07379 | -59.08591 | 23372 ft | 436 kts | 231° |
| 2026-05-06 19:30 | -35.09532 | -59.11224 | 23685 ft | 438 kts | 231° |
| 2026-05-06 19:30 | -35.11688 | -59.13861 | 24018 ft | 439 kts | 231° |
| 2026-05-06 19:30 | -35.13852 | -59.16509 | 24338 ft | 441 kts | 231° |
| 2026-05-06 19:30 | -35.16022 | -59.19169 | 24652 ft | 443 kts | 231° |
| 2026-05-06 19:31 | -35.18201 | -59.21840 | 24974 ft | 444 kts | 231° |
| 2026-05-06 19:31 | -35.20382 | -59.24517 | 25285 ft | 446 kts | 231° |
| 2026-05-06 19:31 | -35.24779 | -59.29922 | 25861 ft | 450 kts | 231° |
| 2026-05-06 19:32 | -35.26987 | -59.32639 | 26136 ft | 451 kts | 231° |
| 2026-05-06 19:32 | -35.29205 | -59.35370 | 26414 ft | 453 kts | 231° |
| 2026-05-06 19:32 | -35.31430 | -59.38111 | 26681 ft | 455 kts | 231° |
| 2026-05-06 19:32 | -35.33664 | -59.40867 | 26950 ft | 457 kts | 231° |
| 2026-05-06 19:33 | -35.35894 | -59.43643 | 27305 ft | 455 kts | 233° |
| 2026-05-06 19:33 | -35.37886 | -59.46599 | 27720 ft | 447 kts | 240° |
| 2026-05-06 19:33 | -35.39704 | -59.49680 | 28150 ft | 444 kts | 241° |
| 2026-05-06 19:33 | -35.41473 | -59.52765 | 28539 ft | 442 kts | 242° |
| 2026-05-06 19:34 | -35.43234 | -59.55854 | 28910 ft | 442 kts | 242° |
| 2026-05-06 19:34 | -35.44997 | -59.58934 | 29324 ft | 441 kts | 242° |
| 2026-05-06 19:34 | -35.46767 | -59.62005 | 29736 ft | 440 kts | 242° |
| 2026-05-06 19:34 | -35.48535 | -59.65055 | 30098 ft | 438 kts | 242° |
| 2026-05-06 19:35 | -35.50302 | -59.68091 | 30489 ft | 435 kts | 243° |
| 2026-05-06 19:35 | -35.52057 | -59.71103 | 30894 ft | 432 kts | 243° |
| 2026-05-06 19:35 | -35.53797 | -59.74086 | 31309 ft | 428 kts | 243° |
| 2026-05-06 19:35 | -35.55524 | -59.77050 | 31667 ft | 427 kts | 243° |
| 2026-05-06 19:36 | -35.58994 | -59.83033 | 31686 ft | 431 kts | 243° |
| 2026-05-06 19:36 | -35.62453 | -59.88992 | 31678 ft | 425 kts | 244° |
| 2026-05-06 19:37 | -35.65873 | -59.94895 | 31694 ft | 424 kts | 244° |
| 2026-05-06 19:37 | -35.69288 | -60.00806 | 31689 ft | 424 kts | 244° |
| 2026-05-06 19:38 | -35.72701 | -60.06723 | 31690 ft | 424 kts | 244° |
| 2026-05-06 19:38 | -35.76113 | -60.12645 | 31689 ft | 424 kts | 244° |
| 2026-05-06 19:39 | -35.79529 | -60.18585 | 31684 ft | 425 kts | 244° |
| 2026-05-06 19:39 | -35.82968 | -60.24574 | 31676 ft | 425 kts | 244° |
| 2026-05-06 19:40 | -35.86357 | -60.30486 | 31677 ft | 425 kts | 244° |
| 2026-05-06 19:40 | -35.89770 | -60.36452 | 31680 ft | 426 kts | 244° |
| 2026-05-06 19:41 | -35.93187 | -60.42433 | 31677 ft | 426 kts | 244° |
| 2026-05-06 19:41 | -35.96593 | -60.48406 | 31669 ft | 426 kts | 244° |
| 2026-05-06 19:42 | -35.99999 | -60.54389 | 31668 ft | 425 kts | 244° |
| 2026-05-06 19:42 | -36.03393 | -60.60362 | 31666 ft | 425 kts | 244° |
| 2026-05-06 19:43 | -36.06780 | -60.66334 | 31671 ft | 424 kts | 245° |
| 2026-05-06 19:43 | -36.10157 | -60.72297 | 31659 ft | 423 kts | 245° |
| 2026-05-06 19:44 | -36.13516 | -60.78242 | 31666 ft | 421 kts | 245° |
| 2026-05-06 19:44 | -36.16853 | -60.84192 | 31654 ft | 420 kts | 245° |
| 2026-05-06 19:45 | -36.20170 | -60.90125 | 31661 ft | 419 kts | 245° |
| 2026-05-06 19:45 | -36.23475 | -60.96046 | 31658 ft | 417 kts | 245° |
| 2026-05-06 19:46 | -36.26771 | -61.01959 | 31658 ft | 416 kts | 245° |
| 2026-05-06 19:46 | -36.30056 | -61.07863 | 31657 ft | 416 kts | 245° |
| 2026-05-06 19:47 | -36.33341 | -61.13777 | 31661 ft | 416 kts | 245° |
| 2026-05-06 19:47 | -36.36621 | -61.19691 | 31661 ft | 417 kts | 245° |
| 2026-05-06 19:48 | -36.39907 | -61.25627 | 31663 ft | 418 kts | 245° |
| 2026-05-06 19:48 | -36.43195 | -61.31579 | 31669 ft | 419 kts | 245° |
| 2026-05-06 19:49 | -36.46496 | -61.37567 | 31670 ft | 421 kts | 245° |
| 2026-05-06 19:49 | -36.49805 | -61.43581 | 31674 ft | 423 kts | 245° |
| 2026-05-06 19:50 | -36.53131 | -61.49634 | 31678 ft | 425 kts | 244° |
| 2026-05-06 19:50 | -36.56473 | -61.55728 | 31678 ft | 427 kts | 244° |
| 2026-05-06 19:51 | -36.59831 | -61.61862 | 31682 ft | 430 kts | 244° |
| 2026-05-06 19:51 | -36.63198 | -61.68023 | 31689 ft | 432 kts | 244° |
| 2026-05-06 19:52 | -36.66581 | -61.74225 | 31690 ft | 434 kts | 244° |
| 2026-05-06 19:52 | -36.69977 | -61.80461 | 31692 ft | 435 kts | 244° |
| 2026-05-06 19:53 | -36.73381 | -61.86724 | 31692 ft | 437 kts | 244° |
| 2026-05-06 19:53 | -36.76765 | -61.92962 | 31687 ft | 438 kts | 245° |
| 2026-05-06 19:54 | -36.80178 | -61.99264 | 31692 ft | 439 kts | 245° |
| 2026-05-06 19:54 | -36.83598 | -62.05592 | 31697 ft | 440 kts | 245° |
| 2026-05-06 19:55 | -36.87023 | -62.11941 | 31705 ft | 441 kts | 244° |
| 2026-05-06 19:55 | -36.90453 | -62.18312 | 31698 ft | 443 kts | 244° |
| 2026-05-06 19:56 | -36.93889 | -62.24707 | 31696 ft | 444 kts | 244° |
| 2026-05-06 19:56 | -36.97333 | -62.31127 | 31698 ft | 445 kts | 244° |
| 2026-05-06 19:57 | -37.00780 | -62.37566 | 31698 ft | 446 kts | 245° |
| 2026-05-06 19:57 | -37.04259 | -62.44077 | 31700 ft | 447 kts | 245° |
| 2026-05-06 19:58 | -37.07694 | -62.50520 | 31702 ft | 448 kts | 245° |
| 2026-05-06 19:58 | -37.11157 | -62.57026 | 31702 ft | 449 kts | 245° |
| 2026-05-06 19:59 | -37.14625 | -62.63553 | 31702 ft | 450 kts | 245° |
| 2026-05-06 19:59 | -37.18112 | -62.70130 | 31707 ft | 450 kts | 245° |
| 2026-05-06 20:00 | -37.21554 | -62.76633 | 31716 ft | 450 kts | 246° |
| 2026-05-06 20:00 | -37.25013 | -62.83183 | 31704 ft | 450 kts | 246° |
| 2026-05-06 20:01 | -37.28461 | -62.89725 | 31706 ft | 449 kts | 246° |
| 2026-05-06 20:01 | -37.31896 | -62.96254 | 31704 ft | 447 kts | 246° |
| 2026-05-06 20:02 | -37.35457 | -63.02689 | 31688 ft | 456 kts | 238° |
| 2026-05-06 20:02 | -37.39879 | -63.08491 | 31707 ft | 460 kts | 234° |
| 2026-05-06 20:03 | -37.44402 | -63.14189 | 31715 ft | 460 kts | 234° |
| 2026-05-06 20:03 | -37.48891 | -63.19909 | 31708 ft | 459 kts | 235° |
| 2026-05-06 20:04 | -37.53350 | -63.25663 | 31708 ft | 459 kts | 235° |
| 2026-05-06 20:04 | -37.57795 | -63.31432 | 31705 ft | 459 kts | 235° |
| 2026-05-06 20:05 | -37.62240 | -63.37213 | 31697 ft | 459 kts | 235° |
| 2026-05-06 20:05 | -37.65968 | -63.42068 | 31699 ft | 460 kts | 235° |
| 2026-05-06 20:06 | -37.70417 | -63.47870 | 31696 ft | 460 kts | 235° |
| 2026-05-06 20:06 | -37.74875 | -63.53695 | 31689 ft | 461 kts | 235° |
| 2026-05-06 20:07 | -37.79306 | -63.59494 | 31682 ft | 462 kts | 235° |
| 2026-05-06 20:07 | -37.83798 | -63.65384 | 31699 ft | 463 kts | 235° |
| 2026-05-06 20:08 | -37.88266 | -63.71253 | 31692 ft | 463 kts | 235° |
| 2026-05-06 20:08 | -37.92741 | -63.77143 | 31692 ft | 464 kts | 235° |
| 2026-05-06 20:09 | -37.97210 | -63.83035 | 31687 ft | 464 kts | 235° |
| 2026-05-06 20:09 | -38.01679 | -63.88938 | 31687 ft | 464 kts | 235° |
| 2026-05-06 20:10 | -38.06115 | -63.94810 | 31685 ft | 464 kts | 235° |
| 2026-05-06 20:10 | -38.10604 | -64.00762 | 31683 ft | 464 kts | 235° |
| 2026-05-06 20:11 | -38.15056 | -64.06677 | 31685 ft | 464 kts | 235° |
| 2026-05-06 20:11 | -38.19483 | -64.12570 | 31683 ft | 463 kts | 235° |
| 2026-05-06 20:12 | -38.23961 | -64.18542 | 31684 ft | 463 kts | 234° |
| 2026-05-06 20:12 | -38.28402 | -64.24475 | 31683 ft | 463 kts | 234° |
| 2026-05-06 20:13 | -38.32842 | -64.30418 | 31679 ft | 463 kts | 234° |
| 2026-05-06 20:13 | -38.37273 | -64.36361 | 31680 ft | 462 kts | 234° |
| 2026-05-06 20:14 | -38.41683 | -64.42287 | 31678 ft | 460 kts | 233° |
| 2026-05-06 20:14 | -38.46082 | -64.48208 | 31679 ft | 459 kts | 233° |
| 2026-05-06 20:15 | -38.50460 | -64.54113 | 31677 ft | 457 kts | 233° |
| 2026-05-06 20:15 | -38.54816 | -64.60000 | 31678 ft | 455 kts | 233° |
| 2026-05-06 20:16 | -38.59155 | -64.65875 | 31670 ft | 454 kts | 233° |
| 2026-05-06 20:16 | -38.63478 | -64.71740 | 31673 ft | 452 kts | 233° |
| 2026-05-06 20:17 | -38.67778 | -64.77586 | 31675 ft | 451 kts | 233° |
| 2026-05-06 20:17 | -38.72076 | -64.83439 | 31677 ft | 451 kts | 233° |
| 2026-05-06 20:18 | -38.76365 | -64.89292 | 31673 ft | 451 kts | 233° |
| 2026-05-06 20:18 | -38.80651 | -64.95149 | 31680 ft | 451 kts | 233° |
| 2026-05-06 20:19 | -38.84949 | -65.01023 | 31685 ft | 452 kts | 233° |
| 2026-05-06 20:19 | -38.89249 | -65.06908 | 31681 ft | 453 kts | 233° |
| 2026-05-06 20:20 | -38.93559 | -65.12820 | 31679 ft | 454 kts | 233° |
| 2026-05-06 20:20 | -38.97871 | -65.18747 | 31681 ft | 455 kts | 233° |
| 2026-05-06 20:21 | -39.02167 | -65.24662 | 31682 ft | 456 kts | 233° |
| 2026-05-06 20:21 | -39.06527 | -65.30678 | 31680 ft | 457 kts | 233° |
| 2026-05-06 20:22 | -39.10835 | -65.36634 | 31682 ft | 458 kts | 233° |
| 2026-05-06 20:22 | -39.15173 | -65.42642 | 31686 ft | 458 kts | 233° |
| 2026-05-06 20:23 | -39.19514 | -65.48667 | 31687 ft | 458 kts | 233° |
| 2026-05-06 20:23 | -39.23850 | -65.54697 | 31670 ft | 458 kts | 232° |
| 2026-05-06 20:24 | -39.28174 | -65.60720 | 31673 ft | 457 kts | 232° |
| 2026-05-06 20:24 | -39.32478 | -65.66732 | 31683 ft | 455 kts | 232° |
| 2026-05-06 20:25 | -39.36768 | -65.72742 | 31677 ft | 454 kts | 232° |
| 2026-05-06 20:25 | -39.41044 | -65.78746 | 31677 ft | 453 kts | 232° |
| 2026-05-06 20:26 | -39.45300 | -65.84733 | 31677 ft | 452 kts | 232° |
| 2026-05-06 20:26 | -39.49544 | -65.90714 | 31680 ft | 451 kts | 232° |
| 2026-05-06 20:27 | -39.53783 | -65.96701 | 31681 ft | 450 kts | 232° |
| 2026-05-06 20:27 | -39.58015 | -66.02690 | 31686 ft | 450 kts | 232° |
| 2026-05-06 20:28 | -39.62239 | -66.08677 | 31686 ft | 450 kts | 232° |
| 2026-05-06 20:28 | -39.66460 | -66.14673 | 31689 ft | 450 kts | 232° |
| 2026-05-06 20:29 | -39.70683 | -66.20683 | 31695 ft | 450 kts | 232° |
| 2026-05-06 20:29 | -39.74898 | -66.26693 | 31689 ft | 450 kts | 232° |
| 2026-05-06 20:30 | -39.81215 | -66.35724 | 31693 ft | 450 kts | 232° |
| 2026-05-06 20:31 | -39.85418 | -66.41745 | 31695 ft | 449 kts | 232° |
| 2026-05-06 20:31 | -39.89615 | -66.47771 | 31692 ft | 449 kts | 232° |
| 2026-05-06 20:32 | -39.93802 | -66.53795 | 31703 ft | 448 kts | 232° |
| 2026-05-06 20:32 | -39.97977 | -66.59812 | 31698 ft | 447 kts | 232° |
| 2026-05-06 20:33 | -40.02143 | -66.65829 | 31702 ft | 446 kts | 232° |
| 2026-05-06 20:33 | -40.06295 | -66.71839 | 31702 ft | 445 kts | 232° |
| 2026-05-06 20:34 | -40.10434 | -66.77839 | 31697 ft | 444 kts | 232° |
| 2026-05-06 20:34 | -40.14556 | -66.83827 | 31699 ft | 442 kts | 232° |
| 2026-05-06 20:35 | -40.18663 | -66.89806 | 31705 ft | 441 kts | 232° |
| 2026-05-06 20:35 | -40.22752 | -66.95771 | 31713 ft | 440 kts | 232° |
| 2026-05-06 20:36 | -40.26836 | -67.01740 | 31710 ft | 440 kts | 232° |
| 2026-05-06 20:36 | -40.30911 | -67.07708 | 31709 ft | 439 kts | 232° |
| 2026-05-06 20:37 | -40.34978 | -67.13676 | 31713 ft | 439 kts | 232° |
| 2026-05-06 20:37 | -40.39020 | -67.19617 | 31718 ft | 439 kts | 232° |
| 2026-05-06 20:38 | -40.43087 | -67.25604 | 31718 ft | 439 kts | 232° |
| 2026-05-06 20:38 | -40.47179 | -67.31637 | 31712 ft | 440 kts | 232° |
| 2026-05-06 20:39 | -40.51240 | -67.37635 | 31727 ft | 440 kts | 232° |
| 2026-05-06 20:39 | -40.55309 | -67.43660 | 31723 ft | 441 kts | 232° |
| 2026-05-06 20:40 | -40.59389 | -67.49714 | 31712 ft | 442 kts | 232° |
| 2026-05-06 20:40 | -40.63466 | -67.55773 | 31709 ft | 441 kts | 232° |
| 2026-05-06 20:41 | -40.67504 | -67.61786 | 31715 ft | 441 kts | 232° |
| 2026-05-06 20:41 | -40.71557 | -67.67834 | 31707 ft | 440 kts | 232° |
| 2026-05-06 20:42 | -40.75605 | -67.73887 | 31707 ft | 440 kts | 232° |
| 2026-05-06 20:42 | -40.79647 | -67.79944 | 31707 ft | 440 kts | 232° |
| 2026-05-06 20:43 | -40.83684 | -67.86006 | 31708 ft | 440 kts | 232° |
| 2026-05-06 20:43 | -40.87725 | -67.92086 | 31712 ft | 440 kts | 232° |
| 2026-05-06 20:44 | -40.91769 | -67.98182 | 31712 ft | 441 kts | 232° |
| 2026-05-06 20:44 | -40.95813 | -68.04290 | 31710 ft | 442 kts | 232° |
| 2026-05-06 20:45 | -40.99862 | -68.10418 | 31717 ft | 442 kts | 232° |
| 2026-05-06 20:45 | -41.03909 | -68.16556 | 31715 ft | 443 kts | 232° |
| 2026-05-06 20:46 | -41.07964 | -68.22719 | 31718 ft | 444 kts | 232° |
| 2026-05-06 20:46 | -41.12016 | -68.28889 | 31722 ft | 444 kts | 232° |
| 2026-05-06 20:47 | -41.16074 | -68.35081 | 31723 ft | 445 kts | 232° |
| 2026-05-06 20:47 | -41.19444 | -68.40233 | 31731 ft | 445 kts | 232° |
| 2026-05-06 20:48 | -41.23500 | -68.46445 | 31745 ft | 445 kts | 232° |
| 2026-05-06 20:48 | -41.28210 | -68.53675 | 31743 ft | 445 kts | 232° |
| 2026-05-06 20:49 | -41.31601 | -68.58891 | 31748 ft | 445 kts | 232° |
| 2026-05-06 20:49 | -41.35647 | -68.65128 | 31757 ft | 445 kts | 233° |
| 2026-05-06 20:50 | -41.39688 | -68.71369 | 31762 ft | 445 kts | 233° |
| 2026-05-06 20:50 | -41.43723 | -68.77614 | 31780 ft | 446 kts | 233° |
| 2026-05-06 20:51 | -41.50802 | -68.88602 | 31737 ft | 448 kts | 233° |
| 2026-05-06 20:51 | -41.66939 | -69.13795 | 31789 ft | 443 kts | 233° |
| 2026-05-06 20:52 | -41.81464 | -69.36661 | 29976 ft | 437 kts | 234° |
| 2026-05-06 20:52 | -41.86920 | -69.45289 | 28446 ft | 431 kts | 234° |
| 2026-05-06 20:52 | -41.94529 | -69.57355 | 26617 ft | 416 kts | 234° |
| 2026-05-06 20:52 | -42.01883 | -69.69080 | 24884 ft | 405 kts | 233° |
| 2026-05-06 20:53 | -42.09073 | -69.80592 | 23108 ft | 398 kts | 233° |
| 2026-05-06 20:53 | -42.16138 | -69.91938 | 21162 ft | 390 kts | 233° |
| 2026-05-06 20:53 | -42.22991 | -70.02985 | 19412 ft | 380 kts | 233° |
| 2026-05-06 20:53 | -42.24676 | -70.05710 | 18978 ft | 375 kts | 233° |
| 2026-05-06 20:54 | -42.30035 | -70.14388 | 17510 ft | 358 kts | 232° |
| 2026-05-06 20:54 | -42.36347 | -70.24646 | 15807 ft | 350 kts | 232° |
| 2026-05-06 20:54 | -42.41724 | -70.33415 | 14388 ft | 342 kts | 230° |
| 2026-05-06 20:54 | -42.44869 | -70.38554 | 13503 ft | 324 kts | 230° |
| 2026-05-06 20:55 | -42.50556 | -70.47866 | 11937 ft | 317 kts | 230° |
| 2026-05-06 20:55 | -42.55896 | -70.56637 | 10510 ft | 313 kts | 230° |
| 2026-05-06 20:55 | -42.58460 | -70.60862 | 10054 ft | 300 kts | 230° |
| 2026-05-06 20:55 | -42.60170 | -70.63683 | 9697 ft | 293 kts | 230° |
| 2026-05-06 20:56 | -42.61450 | -70.65798 | 9407 ft | 284 kts | 230° |
| 2026-05-06 20:56 | -42.62674 | -70.67821 | 9134 ft | 271 kts | 230° |
| 2026-05-06 20:56 | -42.63862 | -70.69786 | 8868 ft | 267 kts | 230° |
| 2026-05-06 20:56 | -42.65034 | -70.71724 | 8610 ft | 264 kts | 230° |
| 2026-05-06 20:57 | -42.67773 | -70.76259 | 8470 ft | 265 kts | 230° |
| 2026-05-06 20:57 | -42.70075 | -70.79997 | 8010 ft | 272 kts | 229° |
| 2026-05-06 20:57 | -42.71388 | -70.82098 | 7690 ft | 274 kts | 229° |
| 2026-05-06 20:57 | -42.72616 | -70.84065 | 7387 ft | 271 kts | 229° |
| 2026-05-06 20:58 | -42.73883 | -70.85944 | 7101 ft | 268 kts | 219° |
| 2026-05-06 20:58 | -42.75417 | -70.87273 | 6909 ft | 255 kts | 211° |
| 2026-05-06 20:58 | -42.76916 | -70.88469 | 6700 ft | 245 kts | 211° |
| 2026-05-06 20:58 | -42.78355 | -70.89637 | 6436 ft | 237 kts | 212° |
| 2026-05-06 20:59 | -42.79543 | -70.91076 | 6288 ft | 222 kts | 230° |
| 2026-05-06 20:59 | -42.80468 | -70.92692 | 6015 ft | 211 kts | 233° |
| 2026-05-06 20:59 | -42.81279 | -70.94301 | 5725 ft | 201 kts | 236° |
| 2026-05-06 20:59 | -42.82020 | -70.95861 | 5451 ft | 191 kts | 236° |
| 2026-05-06 21:00 | -42.82720 | -70.97348 | 5193 ft | 183 kts | 236° |
| 2026-05-06 21:00 | -42.83391 | -70.98771 | 4954 ft | 173 kts | 236° |
| 2026-05-06 21:00 | -42.84018 | -71.00100 | 4734 ft | 161 kts | 236° |
| 2026-05-06 21:00 | -42.84597 | -71.01326 | 4516 ft | 151 kts | 236° |
| 2026-05-06 21:01 | -42.85154 | -71.02504 | 4293 ft | 150 kts | 236° |
| 2026-05-06 21:01 | -42.85723 | -71.03707 | 4063 ft | 152 kts | 236° |
| 2026-05-06 21:01 | -42.86289 | -71.04905 | 3816 ft | 150 kts | 237° |
| 2026-05-06 21:01 | -42.86860 | -71.06117 | 3609 ft | 155 kts | 237° |
| 2026-05-06 21:02 | -42.87443 | -71.07347 | 3405 ft | 153 kts | 237° |
| 2026-05-06 21:02 | -42.88011 | -71.08550 | 3201 ft | 151 kts | 238° |
| 2026-05-06 21:02 | -42.88582 | -71.09761 | 3056 ft | 150 kts | 237° |
| 2026-05-06 21:02 | -42.89143 | -71.10935 | 2893 ft | 147 kts | 238° |
| 2026-05-06 21:03 | -42.89699 | -71.12122 | 2716 ft | 150 kts | 237° |
| 2026-05-06 21:03 | -42.90242 | -71.13273 | 2638 ft | 132 kts | 237° |
| 2026-05-06 21:03 | -42.90588 | -71.13989 | 2635 ft | 37 kts | 237° |
| 2026-05-06 21:03 | -42.90662 | -71.14143 | 2635 ft | 11 kts | 236° |
| 2026-05-06 21:04 | -42.90700 | -71.14227 | 2636 ft | 10 kts | 246° |
| 2026-05-06 21:04 | -42.90722 | -71.14318 | 2635 ft | 10 kts | 255° |
| 2026-05-06 21:04 | -42.90733 | -71.14379 | 2635 ft | 10 kts | 258° |
| 2026-05-06 21:04 | -42.90740 | -71.14470 | 2636 ft | 9 kts | 267° |
| 2026-05-06 21:05 | -42.90740 | -71.14553 | 2636 ft | 5 kts | 288° |
| 2026-05-06 21:05 | -42.90714 | -71.14587 | 2635 ft | 5 kts | 325° |
| 2026-05-06 21:05 | -42.90682 | -71.14603 | 2635 ft | 5 kts | 356° |
| 2026-05-06 21:05 | -42.90649 | -71.14601 | 2635 ft | 3 kts | 5° |
| 2026-05-06 21:06 | -42.90631 | -71.14613 | 2635 ft | 3 kts | 300° |
| 2026-05-06 21:06 | -42.90630 | -71.14633 | 2635 ft | 1 kts | 271° |
| 2026-05-06 21:06 | -42.90630 | -71.14637 | 2635 ft | 0 kts | 271° |